This is the latest recevied weather packets stored in our database for station/object VA2CPJ. If no packets are shown the sender has not sent any weather packets the latest 10 day(s).
| Time | Temp. | Humidity | Pressure | Rain* | Wind** | Luminosity | Snow |
|---|---|---|---|---|---|---|---|
| 1777917969 | 7.78° C | 84% | 1013.7 hPa | - | - | - | - |
| 1777917024 | 6.67° C | 86% | 1013 hPa | - | - | - | - |
| 1777916469 | 6.11° C | 86% | 1013 hPa | - | - | - | - |
| 1777914329 | 5.56° C | 89% | 1013.7 hPa | - | - | - | - |
| 1777914069 | 5° C | 90% | 1013 hPa | - | - | - | - |
| 1777913186 | 4.44° C | 93% | 1014 hPa | - | - | - | - |
| 1777912561 | 4.44° C | 93% | 1014 hPa | - | - | - | - |
| 1777911975 | 4.44° C | 93% | 1014 hPa | - | - | - | - |
| 1777911626 | 3.89° C | 94% | 1013.3 hPa | - | - | - | - |
| 1777910768 | 3.89° C | 94% | 1014 hPa | - | - | - | - |
| 1777910129 | 3.89° C | 94% | 1014.3 hPa | - | - | - | - |
| 1777909843 | 3.89° C | 93% | 1013.3 hPa | - | - | - | - |
| 1777909534 | 3.89° C | 93% | 1014 hPa | - | - | - | - |
| 1777908419 | 3.89° C | 93% | 1014 hPa | - | - | - | - |
| 1777907156 | 3.89° C | 91% | 1013.7 hPa | - | - | - | - |
| 1777905941 | 3.89° C | 88% | 1013.7 hPa | - | - | - | - |
| 1777904730 | 3.89° C | 83% | 1013.7 hPa | - | - | - | - |
| 1777902919 | 4.44° C | 74% | 1014 hPa | - | - | - | - |
| 1777901729 | 5° C | 66% | 1013.7 hPa | - | - | - | - |
| 1777901135 | 5° C | 65% | 1013.7 hPa | - | - | - | - |
| 1777900559 | 5° C | 65% | 1013.7 hPa | - | - | - | - |
| 1777900232 | 5° C | 65% | 1013 hPa | - | - | - | - |
| 1777899376 | 5° C | 65% | 1013.7 hPa | - | - | - | - |
| 1777898209 | 6.11° C | 58% | 1013.7 hPa | - | - | - | - |
| 1777897826 | 6.11° C | 58% | 1013 hPa | - | - | - | - |
* Rain since midnight (hover to see other rain measurements)
** Current wind speed in m/s (hover to see current wind gust speed)